Time;durP1;ratioP1;P1;durP2;ratioP2;P2;SDS_P1;SDS_P2;PMS_P1;PMS_P2;Temp;Humidity;BMP_temperature;BMP_pressure;BME280_temperature;BME280_humidity;BME280_pressure;Samples;Min_cycle;Max_cycle;Signal;HPM_P1;HPM_P2
2022/06/17 00:00:56;;;;;;;;;0.00;0.00;21.40;99.90;;;;;;4933915;28;8888;-53
2022/06/17 00:03:28;;;;;;;;;0.00;0.00;21.50;99.90;;;;;;4947489;28;8880;-51
2022/06/17 00:06:02;;;;;;;;;0.00;0.00;21.50;99.90;;;;;;4957930;28;8853;-52
2022/06/17 00:08:39;;;;;;;;;0.00;0.00;21.50;99.90;;;;;;4954660;28;8896;-52
2022/06/17 00:11:18;;;;;;;;;1.00;1.00;21.50;99.90;;;;;;4954337;28;8853;-52
2022/06/17 00:13:49;;;;;;;;;0.75;0.50;21.50;99.90;;;;;;4952628;28;8923;-49
2022/06/17 00:16:21;;;;;;;;;0.00;0.00;21.60;99.90;;;;;;4954290;28;9006;-52
2022/06/17 00:18:54;;;;;;;;;0.00;0.00;21.60;99.90;;;;;;4952088;28;8864;-50
2022/06/17 00:21:36;;;;;;;;;0.25;0.25;21.60;99.90;;;;;;4957866;28;8861;-49
2022/06/17 00:24:14;;;;;;;;;0.50;0.50;21.60;99.90;;;;;;4955075;28;8890;-49
2022/06/17 00:26:46;;;;;;;;;0.00;0.00;21.60;99.90;;;;;;4952260;28;8987;-53
2022/06/17 00:29:21;;;;;;;;;1.75;1.75;21.60;99.90;;;;;;4950942;28;9026;-51
2022/06/17 00:31:51;;;;;;;;;0.50;0.50;21.60;99.90;;;;;;4950475;28;8897;-53
2022/06/17 00:34:23;;;;;;;;;0.25;0.25;21.60;99.90;;;;;;4934803;28;8879;-52
2022/06/17 00:36:57;;;;;;;;;1.00;1.00;21.60;99.90;;;;;;4959332;28;8852;-52
2022/06/17 00:39:34;;;;;;;;;0.50;0.50;21.70;99.90;;;;;;4950852;28;8861;-51
2022/06/17 00:42:13;;;;;;;;;1.00;1.00;21.70;99.90;;;;;;4938366;28;8860;-51
2022/06/17 00:45:11;;;;;;;;;1.00;1.00;21.70;99.90;;;;;;4957266;28;8997;-49
2022/06/17 00:48:01;;;;;;;;;1.75;1.75;21.80;99.90;;;;;;4962776;28;8859;-50
2022/06/17 00:50:58;;;;;;;;;2.25;2.00;21.80;99.90;;;;;;4950218;28;8926;-52
2022/06/17 00:53:33;;;;;;;;;1.00;1.00;21.70;99.90;;;;;;4955647;28;8845;-52
2022/06/17 00:56:11;;;;;;;;;2.00;2.00;21.60;99.90;;;;;;4954020;28;8851;-51
2022/06/17 00:59:00;;;;;;;;;2.00;2.00;21.60;99.90;;;;;;4948590;28;8883;-49
2022/06/17 01:01:50;;;;;;;;;2.25;0.75;21.50;99.90;;;;;;4948809;28;8874;-50
2022/06/17 01:04:33;;;;;;;;;1.25;1.25;21.50;99.90;;;;;;4932595;28;8947;-52
2022/06/17 01:07:09;;;;;;;;;2.25;2.25;21.50;99.90;;;;;;4936322;28;8841;-50
2022/06/17 01:10:01;;;;;;;;;2.00;2.00;21.40;99.90;;;;;;4932698;28;8892;-49
2022/06/17 01:12:40;;;;;;;;;0.00;0.00;21.30;99.90;;;;;;4948482;28;8857;-49
2022/06/17 01:15:16;;;;;;;;;1.00;1.00;21.10;99.90;;;;;;4937437;28;9548;-50
2022/06/17 01:17:52;;;;;;;;;0.75;0.75;21.10;99.90;;;;;;4951389;28;8982;-52
2022/06/17 01:20:25;;;;;;;;;1.25;1.25;21.00;99.90;;;;;;4954124;28;8871;-52
2022/06/17 01:23:04;;;;;;;;;2.00;1.67;20.80;99.90;;;;;;4937776;28;8837;-53
2022/06/17 01:25:44;;;;;;;;;2.67;1.33;20.80;99.90;;;;;;4934950;28;9122;-49
2022/06/17 01:28:18;;;;;;;;;2.67;2.67;20.80;99.90;;;;;;4938444;28;9674;-50
2022/06/17 01:30:58;;;;;;;;;2.00;2.00;20.80;99.90;;;;;;4957845;28;9110;-49
2022/06/17 01:33:34;;;;;;;;;1.00;1.00;20.80;99.90;;;;;;4935239;28;9112;-51
2022/06/17 01:36:26;;;;;;;;;2.00;2.00;20.70;99.90;;;;;;4954191;28;9556;-51
2022/06/17 01:38:59;;;;;;;;;1.33;1.33;20.60;99.90;;;;;;4932052;28;8931;-50
2022/06/17 01:41:32;;;;;;;;;0.33;0.33;20.60;99.90;;;;;;4953870;28;9267;-51
2022/06/17 01:44:23;;;;;;;;;1.33;1.33;20.50;99.90;;;;;;4949596;28;9051;-52
2022/06/17 01:46:56;;;;;;;;;1.67;1.67;20.50;99.90;;;;;;4941967;28;9059;-50
2022/06/17 01:49:56;;;;;;;;;2.00;2.00;20.60;99.90;;;;;;4944930;28;9161;-53
2022/06/17 01:52:31;;;;;;;;;2.00;2.00;20.40;99.90;;;;;;4927224;28;9274;-53
2022/06/17 01:55:29;;;;;;;;;2.00;2.00;20.40;99.90;;;;;;4943790;28;9516;-50
2022/06/17 01:58:05;;;;;;;;;3.00;3.00;20.20;99.90;;;;;;4931149;28;9142;-52
2022/06/17 02:00:40;;;;;;;;;1.00;1.00;20.20;99.90;;;;;;4923297;28;9442;-48
2022/06/17 02:03:18;;;;;;;;;4.33;3.00;20.10;99.90;;;;;;4927869;28;9363;-51
2022/06/17 02:05:56;;;;;;;;;3.00;3.00;20.00;99.90;;;;;;4952273;28;9589;-47
2022/06/17 02:08:28;;;;;;;;;2.33;2.33;19.90;99.90;;;;;;4938822;28;9356;-48
2022/06/17 02:11:01;;;;;;;;;1.67;1.67;19.80;99.90;;;;;;4936266;28;10269;-50
2022/06/17 02:13:40;;;;;;;;;3.00;3.00;19.80;99.90;;;;;;4936451;28;9401;-52
2022/06/17 02:16:20;;;;;;;;;1.50;1.50;19.70;99.90;;;;;;4938305;28;9700;-50
2022/06/17 02:19:13;;;;;;;;;2.25;2.25;19.70;99.90;;;;;;4927747;28;10372;-52
2022/06/17 02:21:59;;;;;;;;;2.00;2.00;19.70;99.90;;;;;;4918390;28;9709;-51
2022/06/17 02:24:30;;;;;;;;;1.00;1.00;19.60;99.90;;;;;;4923113;28;9714;-52
2022/06/17 02:27:02;;;;;;;;;2.00;2.00;19.60;99.90;;;;;;4914867;28;10234;-51
2022/06/17 02:29:36;;;;;;;;;2.00;2.00;19.60;99.90;;;;;;4912853;28;9622;-51
2022/06/17 02:32:10;;;;;;;;;1.00;1.00;19.50;99.90;;;;;;4932407;28;9683;-52
2022/06/17 02:35:01;;;;;;;;;3.00;3.00;19.30;99.90;;;;;;4916578;28;9422;-51
2022/06/17 02:37:33;;;;;;;;;1.00;1.00;19.20;99.90;;;;;;4913291;28;9599;-51
2022/06/17 02:40:07;;;;;;;;;2.00;2.00;19.20;99.90;;;;;;4919404;28;10372;-51
2022/06/17 02:42:40;;;;;;;;;1.33;1.33;19.10;99.90;;;;;;4920665;28;9893;-51
2022/06/17 02:45:18;;;;;;;;;1.00;1.00;19.00;99.90;;;;;;4905930;28;9651;-51
2022/06/17 02:47:50;;;;;;;;;2.00;2.00;18.80;99.90;;;;;;4937778;28;10099;-52
2022/06/17 02:50:27;;;;;;;;;1.00;1.00;18.80;99.90;;;;;;4912024;28;10026;-52
2022/06/17 02:53:01;;;;;;;;;0.75;0.75;18.80;99.90;;;;;;4921269;29;9866;-51
2022/06/17 02:55:35;;;;;;;;;3.25;3.25;18.70;99.90;;;;;;4910045;28;10205;-51
2022/06/17 02:58:16;;;;;;;;;4.00;4.00;18.60;99.90;;;;;;4926227;28;10334;-54
2022/06/17 03:00:46;;;;;;;;;3.00;3.00;18.60;99.90;;;;;;4929833;28;10602;-50
2022/06/17 03:03:22;;;;;;;;;3.25;3.00;18.70;99.90;;;;;;4932886;28;10565;-52
2022/06/17 03:05:54;;;;;;;;;4.00;4.00;18.60;99.90;;;;;;4930805;28;10715;-54
2022/06/17 03:08:29;;;;;;;;;2.25;2.25;18.50;99.90;;;;;;4918368;28;10477;-53
2022/06/17 03:11:02;;;;;;;;;1.50;1.50;18.40;99.90;;;;;;4919143;29;10678;-52
2022/06/17 03:13:51;;;;;;;;;3.00;3.00;18.40;99.90;;;;;;4933775;28;10489;-53
2022/06/17 03:16:24;;;;;;;;;1.00;1.00;18.20;99.90;;;;;;4930060;28;10380;-53
2022/06/17 03:18:56;;;;;;;;;0.50;0.50;18.20;99.90;;;;;;4922685;28;10138;-52
2022/06/17 03:21:27;;;;;;;;;2.00;2.00;18.10;99.90;;;;;;4936150;28;10173;-53
2022/06/17 03:24:19;;;;;;;;;2.00;2.00;18.10;99.90;;;;;;4945630;28;10316;-51
2022/06/17 03:26:58;;;;;;;;;3.00;3.00;18.10;99.90;;;;;;4932566;28;10543;-50
2022/06/17 03:29:32;;;;;;;;;3.25;3.25;18.10;99.90;;;;;;4930949;28;10282;-51
2022/06/17 03:32:10;;;;;;;;;1.75;1.75;18.10;99.90;;;;;;4933052;28;10457;-53
2022/06/17 03:34:54;;;;;;;;;3.75;3.75;18.00;99.90;;;;;;4928932;28;10215;-53
2022/06/17 03:37:38;;;;;;;;;0.75;0.75;17.90;99.90;;;;;;4947740;28;10451;-47
2022/06/17 03:40:20;;;;;;;;;1.00;1.00;17.80;99.90;;;;;;4937748;28;10609;-52
2022/06/17 03:43:04;;;;;;;;;3.00;3.00;17.80;99.90;;;;;;4941985;28;10642;-53
2022/06/17 03:45:51;;;;;;;;;3.00;3.00;17.70;99.90;;;;;;4943108;28;10673;-52
2022/06/17 03:48:23;;;;;;;;;2.25;2.25;17.70;99.90;;;;;;4937029;28;10872;-52
2022/06/17 03:50:54;;;;;;;;;4.50;4.50;17.70;99.90;;;;;;4942762;28;10816;-52
2022/06/17 03:53:32;;;;;;;;;4.25;4.25;17.70;99.90;;;;;;4946035;28;10848;-48
2022/06/17 03:56:07;;;;;;;;;4.50;4.50;17.70;99.90;;;;;;4938169;28;11029;-49
2022/06/17 03:58:41;;;;;;;;;3.75;3.75;17.70;99.90;;;;;;4948646;28;11797;-51
2022/06/17 04:01:12;;;;;;;;;4.25;4.25;17.60;99.90;;;;;;4935802;28;10891;-53
2022/06/17 04:03:57;;;;;;;;;6.00;6.00;17.50;99.90;;;;;;4935510;28;11046;-50
2022/06/17 04:06:39;;;;;;;;;4.75;4.75;17.60;99.90;;;;;;4935223;28;11146;-53
2022/06/17 04:09:27;;;;;;;;;12.25;12.25;17.50;99.90;;;;;;4936386;28;11844;-50
2022/06/17 04:12:06;;;;;;;;;22.00;22.00;17.40;99.90;;;;;;4937529;28;11551;-53
2022/06/17 04:14:53;;;;;;;;;23.50;23.50;17.30;99.90;;;;;;4937932;28;11555;-52
2022/06/17 04:17:42;;;;;;;;;24.25;24.25;17.30;99.90;;;;;;4941031;28;11559;-54
2022/06/17 04:20:26;;;;;;;;;23.50;23.50;17.40;99.90;;;;;;4932860;28;11559;-53
2022/06/17 04:23:15;;;;;;;;;18.50;18.50;17.40;99.90;;;;;;4940027;28;11561;-48
2022/06/17 04:26:32;;;;;;;;;22.25;21.75;17.30;99.90;;;;;;4928495;28;12279;-49
2022/06/17 04:29:41;;;;;;;;;24.75;24.75;17.40;99.90;;;;;;4931286;28;11654;-52
2022/06/17 04:32:18;;;;;;;;;23.50;23.50;17.40;99.90;;;;;;4935280;28;11584;-53
2022/06/17 04:34:53;;;;;;;;;25.50;25.50;17.30;99.90;;;;;;4935432;28;11674;-51
2022/06/17 04:37:25;;;;;;;;;29.00;28.75;17.20;99.90;;;;;;4937454;28;11604;-53
2022/06/17 04:40:42;;;;;;;;;27.25;27.00;17.20;99.90;;;;;;4937576;28;11739;-53
2022/06/17 04:43:47;;;;;;;;;13.25;13.25;17.10;99.90;;;;;;4938981;28;11561;-51
2022/06/17 04:46:41;;;;;;;;;8.50;8.50;17.10;99.90;;;;;;4927300;28;12408;-50
2022/06/17 04:49:25;;;;;;;;;11.50;11.25;17.00;99.90;;;;;;4934043;28;11780;-51
2022/06/17 04:52:01;;;;;;;;;6.75;6.75;17.10;99.90;;;;;;4933976;28;11655;-52
2022/06/17 04:54:36;;;;;;;;;4.00;4.00;17.10;99.90;;;;;;4953008;28;11830;-52
2022/06/17 04:57:38;;;;;;;;;3.25;3.25;16.90;99.90;;;;;;4930802;28;11825;-51
2022/06/17 05:00:23;;;;;;;;;3.75;3.75;17.00;99.90;;;;;;4932829;28;11292;-53
2022/06/17 05:02:58;;;;;;;;;7.50;5.75;17.00;99.90;;;;;;4936698;28;11361;-50
2022/06/17 05:05:48;;;;;;;;;3.00;3.00;17.00;99.90;;;;;;4937410;28;11584;-50
2022/06/17 05:08:33;;;;;;;;;2.00;2.00;16.90;99.90;;;;;;4935813;28;10781;-53
2022/06/17 05:11:25;;;;;;;;;3.75;3.75;16.90;99.90;;;;;;4939306;28;10615;-50
2022/06/17 05:14:13;;;;;;;;;3.25;3.25;17.00;99.90;;;;;;4938934;28;11565;-54
2022/06/17 05:16:46;;;;;;;;;3.25;3.25;16.80;99.90;;;;;;4934554;28;11604;-52
2022/06/17 05:19:20;;;;;;;;;1.50;1.00;16.80;99.90;;;;;;4936877;28;10660;-53
2022/06/17 05:21:53;;;;;;;;;2.50;2.50;16.70;99.90;;;;;;4931470;28;10748;-51
2022/06/17 05:24:29;;;;;;;;;3.50;3.50;16.70;99.90;;;;;;4934283;28;10610;-54
2022/06/17 05:27:00;;;;;;;;;3.25;3.00;16.80;99.90;;;;;;4917849;28;10501;-51
2022/06/17 05:29:32;;;;;;;;;2.50;2.50;16.80;99.90;;;;;;4913686;28;10789;-51
2022/06/17 05:32:08;;;;;;;;;2.75;2.75;16.80;99.90;;;;;;4937338;28;10677;-51
2022/06/17 05:34:42;;;;;;;;;2.00;2.00;16.80;99.90;;;;;;4949874;28;10552;-52
2022/06/17 05:37:14;;;;;;;;;2.00;1.00;16.70;99.90;;;;;;4935553;28;11411;-53
2022/06/17 05:39:47;;;;;;;;;2.00;2.00;16.60;99.90;;;;;;4943025;28;10636;-50
2022/06/17 05:42:17;;;;;;;;;1.25;1.25;16.60;99.90;;;;;;4947397;28;10736;-51
2022/06/17 05:44:48;;;;;;;;;2.50;2.50;16.60;99.90;;;;;;4934080;28;10887;-52
2022/06/17 05:47:32;;;;;;;;;4.00;4.00;16.60;99.90;;;;;;4931631;28;10640;-53
2022/06/17 05:50:24;;;;;;;;;2.00;2.00;16.60;99.90;;;;;;4935103;28;10761;-51
2022/06/17 05:53:14;;;;;;;;;2.00;1.50;16.60;99.90;;;;;;4940792;28;10730;-48
2022/06/17 05:55:48;;;;;;;;;1.00;1.00;16.60;99.90;;;;;;4937012;28;10589;-51
2022/06/17 05:58:18;;;;;;;;;2.00;2.00;16.60;99.90;;;;;;4934741;28;10668;-48
2022/06/17 06:00:51;;;;;;;;;2.00;2.00;16.60;99.90;;;;;;4931769;28;10813;-52
2022/06/17 06:03:29;;;;;;;;;1.50;1.50;16.50;99.90;;;;;;4929396;28;10834;-51
2022/06/17 06:06:05;;;;;;;;;1.00;1.00;16.50;99.90;;;;;;4928519;28;11399;-51
2022/06/17 06:08:35;;;;;;;;;1.75;1.75;16.50;99.90;;;;;;4925765;28;10441;-52
2022/06/17 06:11:07;;;;;;;;;1.00;1.00;16.50;99.90;;;;;;4928983;28;10720;-49
2022/06/17 06:13:42;;;;;;;;;2.00;2.00;16.50;99.90;;;;;;4936455;28;10769;-50
2022/06/17 06:16:15;;;;;;;;;0.50;0.50;16.40;99.90;;;;;;4927111;28;10508;-49
2022/06/17 06:18:51;;;;;;;;;1.25;1.25;16.40;99.90;;;;;;4938758;28;10664;-49
2022/06/17 06:21:24;;;;;;;;;2.00;1.75;16.50;99.90;;;;;;4935757;28;10852;-50
2022/06/17 06:23:56;;;;;;;;;3.25;3.25;16.50;99.90;;;;;;4937893;28;10917;-52
2022/06/17 06:26:34;;;;;;;;;1.00;1.00;16.50;99.90;;;;;;4934058;28;10835;-53
2022/06/17 06:29:32;;;;;;;;;3.75;2.75;16.50;99.90;;;;;;4939038;28;10563;-50
2022/06/17 06:32:03;;;;;;;;;0.25;0.25;16.40;99.90;;;;;;4950848;28;10652;-51
2022/06/17 06:34:34;;;;;;;;;1.50;1.50;16.40;99.90;;;;;;4958503;28;10438;-52
2022/06/17 06:37:06;;;;;;;;;1.75;1.75;16.40;99.90;;;;;;4936211;28;10503;-51
2022/06/17 06:39:39;;;;;;;;;3.00;1.75;16.40;99.90;;;;;;4936279;28;10508;-53
2022/06/17 06:42:10;;;;;;;;;3.00;3.00;16.40;99.90;;;;;;4931326;28;10505;-51
2022/06/17 06:45:01;;;;;;;;;1.00;1.00;16.40;99.90;;;;;;4950746;28;10456;-52
2022/06/17 06:47:40;;;;;;;;;1.00;1.00;16.40;99.90;;;;;;4947486;28;10541;-52
2022/06/17 06:50:22;;;;;;;;;3.00;1.00;16.40;99.90;;;;;;4931738;28;10428;-51
2022/06/17 06:52:55;;;;;;;;;2.50;1.00;16.40;99.90;;;;;;4954272;28;10707;-52
2022/06/17 06:55:26;;;;;;;;;2.25;1.50;16.40;99.90;;;;;;4933908;28;10429;-49
2022/06/17 06:58:00;;;;;;;;;1.25;1.25;16.40;99.90;;;;;;4926243;28;10618;-49
2022/06/17 07:00:36;;;;;;;;;1.50;1.50;16.40;99.90;;;;;;4928867;28;10699;-53
2022/06/17 07:03:07;;;;;;;;;2.00;2.00;16.30;99.90;;;;;;4953532;28;10748;-50
2022/06/17 07:05:41;;;;;;;;;2.00;1.75;16.30;99.90;;;;;;4948746;28;10548;-53
2022/06/17 07:08:13;;;;;;;;;1.00;1.00;16.30;99.90;;;;;;4954467;28;10571;-52
2022/06/17 07:10:46;;;;;;;;;2.00;2.00;16.20;99.90;;;;;;4957696;28;11131;-48
2022/06/17 07:13:17;;;;;;;;;1.25;1.25;16.20;99.90;;;;;;4952961;28;10495;-50
2022/06/17 07:15:52;;;;;;;;;1.50;1.50;16.20;99.90;;;;;;4955046;28;10673;-50
2022/06/17 07:18:29;;;;;;;;;1.00;1.00;16.20;99.90;;;;;;4953087;28;10796;-53
2022/06/17 07:21:09;;;;;;;;;2.00;2.00;16.20;99.90;;;;;;4956309;28;10449;-51
2022/06/17 07:23:42;;;;;;;;;2.00;2.00;16.20;99.90;;;;;;4955366;28;10744;-51
2022/06/17 07:26:17;;;;;;;;;2.00;2.00;16.20;99.90;;;;;;4960858;28;10538;-52
2022/06/17 07:28:48;;;;;;;;;4.00;2.00;16.20;99.90;;;;;;4959466;28;10707;-51
2022/06/17 07:31:21;;;;;;;;;1.75;1.75;16.20;99.90;;;;;;4954686;28;10755;-52
2022/06/17 07:33:52;;;;;;;;;1.00;1.00;16.30;99.90;;;;;;4952432;28;10586;-48
2022/06/17 07:42:06;;;;;;;;;0.75;0.75;16.30;99.90;;;;;;4957434;28;10631;-50
2022/06/17 07:44:37;;;;;;;;;0.75;0.75;16.20;99.90;;;;;;4950386;28;10675;-52
2022/06/17 07:47:12;;;;;;;;;1.50;1.50;16.30;99.90;;;;;;4953771;28;10493;-50
2022/06/17 07:49:44;;;;;;;;;2.00;2.00;16.30;99.90;;;;;;4952009;28;10623;-52
2022/06/17 07:52:13;;;;;;;;;1.00;1.00;16.20;99.90;;;;;;4955864;28;11246;-52
2022/06/17 07:54:44;;;;;;;;;1.50;1.50;16.20;99.90;;;;;;4955604;28;10406;-51
2022/06/17 07:57:16;;;;;;;;;1.75;0.50;16.20;99.90;;;;;;4957183;28;10578;-51
2022/06/17 07:59:46;;;;;;;;;2.00;2.00;16.20;99.90;;;;;;4952720;28;11437;-53
2022/06/17 08:02:18;;;;;;;;;2.00;1.25;16.20;99.90;;;;;;4952615;28;10767;-51
2022/06/17 08:04:49;;;;;;;;;1.00;1.00;16.10;99.90;;;;;;4945850;28;10720;-50
2022/06/17 08:07:20;;;;;;;;;0.50;0.00;16.10;99.90;;;;;;4955649;28;11518;-54
2022/06/17 08:09:50;;;;;;;;;1.00;1.00;16.10;99.90;;;;;;4957040;28;11251;-49
2022/06/17 08:12:21;;;;;;;;;3.75;2.25;16.20;99.90;;;;;;4939176;28;10553;-48
2022/06/17 08:14:55;;;;;;;;;1.00;1.00;16.10;99.90;;;;;;4958093;28;10843;-49
2022/06/17 08:17:25;;;;;;;;;2.50;2.50;16.10;99.90;;;;;;4951799;28;10408;-51
2022/06/17 08:19:58;;;;;;;;;1.00;1.00;16.10;99.90;;;;;;4931833;28;10582;-51
2022/06/17 08:22:28;;;;;;;;;1.75;1.75;16.10;99.90;;;;;;4939679;28;11374;-53
2022/06/17 08:24:59;;;;;;;;;1.25;1.25;16.10;99.90;;;;;;4929999;28;10888;-48
2022/06/17 08:27:30;;;;;;;;;1.00;1.00;16.10;99.90;;;;;;4936778;28;10759;-50
2022/06/17 08:30:00;;;;;;;;;1.00;1.00;16.10;99.90;;;;;;4932189;28;10428;-49
2022/06/17 08:32:46;;;;;;;;;2.00;2.00;16.10;99.90;;;;;;4934516;28;10576;-52
2022/06/17 08:35:22;;;;;;;;;2.25;2.25;16.10;99.90;;;;;;4934049;28;10637;-50
2022/06/17 08:38:07;;;;;;;;;1.25;1.25;16.10;99.90;;;;;;4933874;28;10963;-47
2022/06/17 08:40:46;;;;;;;;;1.00;1.00;16.10;99.90;;;;;;4933054;28;10663;-49
2022/06/17 08:43:38;;;;;;;;;1.00;1.00;16.10;99.90;;;;;;4938426;28;10829;-47
2022/06/17 08:46:38;;;;;;;;;1.50;1.50;16.10;99.90;;;;;;4935462;28;10728;-47
2022/06/17 08:49:42;;;;;;;;;2.00;2.00;16.10;99.90;;;;;;4930738;28;10707;-47
2022/06/17 08:52:25;;;;;;;;;1.00;1.00;16.10;99.90;;;;;;4936933;28;10718;-52
2022/06/17 08:55:17;;;;;;;;;1.00;1.00;16.00;99.90;;;;;;4932365;28;10806;-52
2022/06/17 08:57:59;;;;;;;;;4.00;2.25;16.00;99.90;;;;;;4930454;28;10766;-53
2022/06/17 09:00:46;;;;;;;;;1.00;1.00;16.00;99.90;;;;;;4934821;28;10730;-51
2022/06/17 09:03:41;;;;;;;;;3.00;2.00;16.00;99.90;;;;;;4930552;28;10769;-52
2022/06/17 09:06:20;;;;;;;;;1.50;1.50;16.00;99.90;;;;;;4935547;28;10727;-51
2022/06/17 09:09:21;;;;;;;;;1.00;1.00;16.00;99.90;;;;;;4918592;28;10732;-52
2022/06/17 09:12:03;;;;;;;;;1.50;1.50;16.00;99.90;;;;;;4928629;28;10686;-53
2022/06/17 09:14:40;;;;;;;;;0.25;0.25;16.10;99.90;;;;;;4934063;28;10849;-52
2022/06/17 09:17:29;;;;;;;;;0.75;0.75;16.10;99.90;;;;;;4929224;28;10746;-52
2022/06/17 09:20:11;;;;;;;;;1.00;1.00;16.00;99.90;;;;;;4922917;28;10776;-51
2022/06/17 09:22:47;;;;;;;;;2.75;1.50;16.10;99.90;;;;;;4936832;28;10648;-49
2022/06/17 09:25:25;;;;;;;;;1.00;1.00;16.00;99.90;;;;;;4933375;28;11445;-52
2022/06/17 09:27:57;;;;;;;;;1.00;1.00;16.10;99.90;;;;;;4927332;28;10701;-49
2022/06/17 09:30:34;;;;;;;;;3.00;1.75;16.10;99.90;;;;;;4930082;28;10642;-50
2022/06/17 09:33:18;;;;;;;;;2.50;2.50;16.10;99.90;;;;;;4934875;28;10845;-50
2022/06/17 09:36:05;;;;;;;;;1.00;1.00;16.10;99.90;;;;;;4929950;28;10786;-49
2022/06/17 09:39:00;;;;;;;;;1.75;1.75;16.10;99.90;;;;;;4934613;28;10801;-53
2022/06/17 09:41:47;;;;;;;;;1.25;1.25;16.10;99.90;;;;;;4931636;28;10775;-52
2022/06/17 09:44:37;;;;;;;;;3.50;1.00;16.00;99.90;;;;;;4932224;28;10710;-53
2022/06/17 09:47:18;;;;;;;;;1.00;1.00;16.00;99.90;;;;;;4913235;28;10836;-50
2022/06/17 09:50:13;;;;;;;;;0.00;0.00;16.00;99.90;;;;;;4931549;28;11031;-51
2022/06/17 09:52:59;;;;;;;;;1.25;1.25;16.00;99.90;;;;;;4932337;28;10604;-51
2022/06/17 09:55:43;;;;;;;;;1.00;1.00;16.00;99.90;;;;;;4930745;28;10844;-52
2022/06/17 09:58:25;;;;;;;;;1.00;1.00;15.90;99.90;;;;;;4924857;28;10446;-54
2022/06/17 10:00:57;;;;;;;;;1.00;1.00;16.00;99.90;;;;;;4929835;28;10662;-52
2022/06/17 10:03:36;;;;;;;;;1.00;1.00;16.00;99.90;;;;;;4927000;28;10651;-50
2022/06/17 10:06:21;;;;;;;;;2.00;2.00;15.90;99.90;;;;;;4930996;28;10898;-50
2022/06/17 10:09:30;;;;;;;;;2.00;2.00;16.00;99.90;;;;;;4927549;28;10746;-52
2022/06/17 10:12:26;;;;;;;;;1.00;1.00;16.00;99.90;;;;;;4929025;28;10880;-51
2022/06/17 10:15:37;;;;;;;;;1.00;1.00;16.00;99.90;;;;;;4933638;28;10814;-52
2022/06/17 10:18:33;;;;;;;;;0.50;0.50;16.00;99.90;;;;;;4925491;28;10841;-52
2022/06/17 10:21:11;;;;;;;;;2.00;2.00;16.00;99.90;;;;;;4952143;28;11444;-51
2022/06/17 10:24:09;;;;;;;;;0.50;0.50;15.90;99.90;;;;;;4947534;28;10706;-52
2022/06/17 10:26:53;;;;;;;;;1.00;1.00;15.90;99.90;;;;;;4948999;28;10613;-51
2022/06/17 10:29:24;;;;;;;;;1.00;1.00;15.90;99.90;;;;;;4945759;28;10625;-52
2022/06/17 10:31:55;;;;;;;;;0.50;0.50;15.90;99.90;;;;;;4947091;28;10775;-52
2022/06/17 10:34:33;;;;;;;;;0.00;0.00;15.90;99.90;;;;;;4945224;28;10859;-52
2022/06/17 10:37:06;;;;;;;;;0.25;0.25;15.90;99.90;;;;;;4949742;28;10626;-50
2022/06/17 10:39:43;;;;;;;;;1.25;1.25;15.90;99.90;;;;;;4951696;28;10802;-52
2022/06/17 10:42:23;;;;;;;;;1.00;1.00;16.00;99.90;;;;;;4934656;28;10790;-51
2022/06/17 10:44:57;;;;;;;;;0.75;0.75;15.90;99.90;;;;;;4953844;28;10830;-49
2022/06/17 10:47:47;;;;;;;;;1.25;1.25;15.90;99.90;;;;;;4943174;28;10698;-51
2022/06/17 10:50:20;;;;;;;;;0.00;0.00;15.90;99.90;;;;;;4955655;28;10636;-53
2022/06/17 10:52:58;;;;;;;;;1.00;1.00;15.90;99.90;;;;;;4958553;28;10553;-52
2022/06/17 10:55:36;;;;;;;;;1.00;1.00;15.90;99.90;;;;;;4953788;28;10691;-51
2022/06/17 10:58:18;;;;;;;;;1.00;1.00;15.90;99.90;;;;;;4948029;28;10774;-51
2022/06/17 11:00:57;;;;;;;;;0.50;0.50;15.90;99.90;;;;;;4952640;28;10754;-55
2022/06/17 11:03:32;;;;;;;;;1.00;1.00;15.90;99.90;;;;;;4952489;28;11436;-53
2022/06/17 11:06:14;;;;;;;;;1.00;1.00;15.90;99.90;;;;;;4952272;28;10612;-48
2022/06/17 11:08:58;;;;;;;;;1.00;1.00;15.90;99.90;;;;;;4950161;28;10668;-51
2022/06/17 11:12:03;;;;;;;;;0.00;0.00;15.90;99.90;;;;;;4953106;28;10685;-53
2022/06/17 11:14:41;;;;;;;;;0.25;0.25;15.90;99.90;;;;;;4950461;28;10743;-52
2022/06/17 11:17:40;;;;;;;;;0.75;0.75;15.90;99.90;;;;;;4952180;28;10706;-53
2022/06/17 11:20:27;;;;;;;;;0.75;0.75;15.90;99.90;;;;;;4951626;28;10725;-53
2022/06/17 11:23:30;;;;;;;;;0.00;0.00;15.80;99.90;;;;;;4951048;28;10659;-52
2022/06/17 11:26:13;;;;;;;;;1.00;1.00;15.80;99.90;;;;;;4930261;28;10471;-48
2022/06/17 11:28:55;;;;;;;;;1.00;1.00;15.80;99.90;;;;;;4946444;28;10625;-52
2022/06/17 11:31:25;;;;;;;;;0.00;0.00;15.80;99.90;;;;;;4948860;28;10611;-52
2022/06/17 11:34:17;;;;;;;;;0.00;0.00;15.80;99.90;;;;;;4953064;28;10395;-48
2022/06/17 11:37:29;;;;;;;;;1.00;1.00;15.80;99.90;;;;;;4945028;28;10609;-49
2022/06/17 11:40:22;;;;;;;;;1.00;1.00;15.80;99.90;;;;;;4949428;28;10644;-49
2022/06/17 11:42:59;;;;;;;;;0.25;0.25;15.80;99.90;;;;;;4954102;28;10769;-52
2022/06/17 11:45:29;;;;;;;;;0.00;0.00;15.80;99.90;;;;;;4950557;28;10734;-52
2022/06/17 11:48:21;;;;;;;;;1.25;0.00;15.70;99.90;;;;;;4949601;28;10543;-61
2022/06/17 11:51:10;;;;;;;;;0.00;0.00;15.70;99.90;;;;;;4954093;28;10669;-52
2022/06/17 11:54:00;;;;;;;;;0.75;0.75;15.70;99.90;;;;;;4954330;28;10610;-54
2022/06/17 11:56:35;;;;;;;;;1.00;1.00;15.70;99.90;;;;;;4953865;28;11667;-52
2022/06/17 11:59:31;;;;;;;;;1.00;1.00;15.70;99.90;;;;;;4936177;28;10724;-51
2022/06/17 12:02:08;;;;;;;;;0.00;0.00;15.70;99.90;;;;;;4954339;28;10920;-52
2022/06/17 12:04:47;;;;;;;;;0.50;0.50;15.70;99.90;;;;;;4957592;28;10565;-53
2022/06/17 12:07:49;;;;;;;;;1.00;1.00;15.80;99.90;;;;;;4943177;28;10789;-52
2022/06/17 12:10:41;;;;;;;;;0.00;0.00;15.80;99.90;;;;;;4949048;28;10736;-50
2022/06/17 12:13:17;;;;;;;;;0.00;0.00;15.80;99.90;;;;;;4958500;28;10736;-51
2022/06/17 12:15:57;;;;;;;;;1.00;1.00;15.70;99.90;;;;;;4958077;28;10640;-52
2022/06/17 12:18:42;;;;;;;;;0.00;0.00;15.70;99.90;;;;;;4951947;28;11186;-52
2022/06/17 12:21:30;;;;;;;;;1.00;1.00;15.70;99.90;;;;;;4952827;28;10734;-52
2022/06/17 12:24:24;;;;;;;;;1.00;1.00;15.70;99.90;;;;;;4955420;28;10656;-48
2022/06/17 12:27:23;;;;;;;;;1.00;1.00;15.70;99.90;;;;;;4953140;28;10638;-51
2022/06/17 12:30:28;;;;;;;;;0.00;0.00;15.70;99.90;;;;;;4942899;28;10863;-49
2022/06/17 12:33:22;;;;;;;;;0.00;0.00;15.70;99.90;;;;;;4950083;28;11624;-51
2022/06/17 12:36:04;;;;;;;;;1.00;1.00;15.70;99.90;;;;;;4959907;28;10651;-50
2022/06/17 12:38:53;;;;;;;;;0.00;0.00;15.70;99.90;;;;;;4956893;28;11890;-51
2022/06/17 12:41:48;;;;;;;;;0.00;0.00;15.70;99.90;;;;;;4946296;28;11587;-49
2022/06/17 12:44:44;;;;;;;;;0.00;0.00;15.70;99.90;;;;;;4955694;28;10813;-53
2022/06/17 12:47:34;;;;;;;;;0.00;0.00;15.70;99.90;;;;;;4947258;28;10577;-51
2022/06/17 12:53:16;;;;;;;;;0.00;0.00;15.70;99.90;;;;;;4950704;28;10768;-50
2022/06/17 12:55:59;;;;;;;;;1.00;1.00;15.70;99.90;;;;;;4955486;28;10807;-53
2022/06/17 12:58:35;;;;;;;;;0.00;0.00;15.70;99.90;;;;;;4946220;28;10690;-50
2022/06/17 13:01:32;;;;;;;;;0.25;0.25;15.70;99.90;;;;;;4953211;28;10823;-48
2022/06/17 13:04:10;;;;;;;;;0.00;0.00;15.70;99.90;;;;;;4949868;28;10827;-54
2022/06/17 13:07:03;;;;;;;;;0.00;0.00;15.70;99.90;;;;;;4950898;28;10460;-52
2022/06/17 13:10:39;;;;;;;;;0.75;0.75;15.70;99.90;;;;;;4943444;28;10878;-53
2022/06/17 13:13:18;;;;;;;;;0.25;0.25;15.70;99.90;;;;;;4950766;28;10758;-49
2022/06/17 13:15:58;;;;;;;;;0.25;0.25;15.60;99.90;;;;;;4919935;28;10658;-50
2022/06/17 13:18:42;;;;;;;;;1.00;1.00;15.70;99.90;;;;;;4947899;28;10867;-51
2022/06/17 13:21:35;;;;;;;;;0.00;0.00;15.70;99.90;;;;;;4951687;28;11040;-53
2022/06/17 13:24:08;;;;;;;;;0.00;0.00;15.70;99.90;;;;;;4952614;28;10719;-51
2022/06/17 13:26:46;;;;;;;;;0.00;0.00;15.70;99.90;;;;;;4946865;28;10904;-53
2022/06/17 13:29:20;;;;;;;;;1.00;1.00;15.70;99.90;;;;;;4955440;28;10704;-50
2022/06/17 13:32:02;;;;;;;;;0.75;0.75;15.70;99.90;;;;;;4945278;28;10716;-51
2022/06/17 13:34:46;;;;;;;;;2.00;0.50;15.70;99.90;;;;;;4950830;28;10776;-53
2022/06/17 13:37:47;;;;;;;;;1.00;1.00;15.70;99.90;;;;;;4956476;28;10620;-53
2022/06/17 13:40:23;;;;;;;;;0.00;0.00;15.80;99.90;;;;;;4949378;28;10773;-53
2022/06/17 13:42:59;;;;;;;;;2.50;1.00;15.80;99.90;;;;;;4952242;28;11355;-52
2022/06/17 13:45:53;;;;;;;;;1.75;0.00;15.70;99.90;;;;;;4956953;28;10992;-53
2022/06/17 13:48:33;;;;;;;;;0.00;0.00;15.70;99.90;;;;;;4952879;28;10460;-52
2022/06/17 13:51:19;;;;;;;;;0.00;0.00;15.80;99.90;;;;;;4948373;28;10542;-52
2022/06/17 13:54:20;;;;;;;;;0.00;0.00;15.80;99.90;;;;;;4947653;28;11312;-51
2022/06/17 13:57:05;;;;;;;;;2.00;0.00;15.70;99.90;;;;;;4949631;28;10697;-52
2022/06/17 13:59:43;;;;;;;;;0.00;0.00;15.80;99.90;;;;;;4934932;28;11074;-52
2022/06/17 14:02:19;;;;;;;;;1.75;0.00;15.80;99.90;;;;;;4951257;28;10436;-51
2022/06/17 14:05:11;;;;;;;;;1.00;1.00;15.80;99.90;;;;;;4949935;28;10622;-50
2022/06/17 14:07:53;;;;;;;;;2.50;1.00;15.80;99.90;;;;;;4954563;28;10560;-52